Time;durP1;ratioP1;P1;durP2;ratioP2;P2;SDS_P1;SDS_P2;PMS_P1;PMS_P2;Temp;Humidity;BMP_temperature;BMP_pressure;BME280_temperature;BME280_humidity;BME280_pressure;Samples;Min_cycle;Max_cycle;Signal;HPM_P1;HPM_P2
2021/08/06 00:01:56;;;;;;;3.95;3.08;;;18.90;93.30;;;;;;5033599;28;20017;-62
2021/08/06 00:04:22;;;;;;;4.18;3.13;;;18.80;93.40;;;;;;5034765;28;20473;-62
2021/08/06 00:06:47;;;;;;;4.15;3.17;;;18.80;93.50;;;;;;5034770;28;20017;-62
2021/08/06 00:09:13;;;;;;;5.63;3.08;;;18.80;93.50;;;;;;5034474;28;20521;-63
2021/08/06 00:11:39;;;;;;;3.85;3.13;;;18.80;93.60;;;;;;5034761;28;20093;-62
2021/08/06 00:14:05;;;;;;;5.28;3.25;;;18.80;93.70;;;;;;5034651;28;20082;-62
2021/08/06 00:16:30;;;;;;;4.63;3.25;;;18.80;93.70;;;;;;5034470;28;20036;-62
2021/08/06 00:18:56;;;;;;;3.65;3.20;;;18.80;93.80;;;;;;5034396;28;20128;-62
2021/08/06 00:21:21;;;;;;;4.57;3.05;;;18.80;93.90;;;;;;5034769;28;20056;-62
2021/08/06 00:23:47;;;;;;;5.55;3.42;;;18.80;93.90;;;;;;5034307;28;20076;-62
2021/08/06 00:26:13;;;;;;;5.07;3.22;;;18.80;94.00;;;;;;5034382;28;20079;-62
2021/08/06 00:28:40;;;;;;;5.43;2.75;;;18.80;94.10;;;;;;5034444;28;20021;-62
2021/08/06 00:31:05;;;;;;;3.63;2.97;;;18.80;94.20;;;;;;5034091;28;20072;-62
2021/08/06 00:33:31;;;;;;;3.42;2.88;;;18.80;94.20;;;;;;5034189;28;20061;-62
2021/08/06 00:35:56;;;;;;;3.83;3.28;;;18.80;94.30;;;;;;5034238;28;20014;-62
2021/08/06 00:38:22;;;;;;;4.43;2.67;;;18.80;94.40;;;;;;5033712;28;20045;-62
2021/08/06 00:40:47;;;;;;;3.55;3.10;;;18.80;94.40;;;;;;5034031;28;20057;-62
2021/08/06 00:43:13;;;;;;;4.50;3.53;;;18.70;94.50;;;;;;5033990;28;20025;-62
2021/08/06 00:45:39;;;;;;;3.88;3.08;;;18.80;94.60;;;;;;5034097;28;20022;-62
2021/08/06 00:48:05;;;;;;;4.20;3.78;;;18.80;94.60;;;;;;5033832;28;20030;-62
2021/08/06 00:50:31;;;;;;;4.35;3.55;;;18.70;94.70;;;;;;5027800;28;20026;-62
2021/08/06 00:52:58;;;;;;;4.50;3.30;;;18.80;94.80;;;;;;5033916;28;20017;-63
2021/08/06 00:55:24;;;;;;;4.07;3.15;;;18.80;94.80;;;;;;5032592;28;20488;-62
2021/08/06 00:57:49;;;;;;;4.50;3.13;;;18.80;94.80;;;;;;5033580;28;20026;-62
2021/08/06 01:00:15;;;;;;;5.00;3.20;;;18.80;94.90;;;;;;5033606;28;20071;-62
2021/08/06 01:03:18;;;;;;;4.07;3.67;;;18.70;95.00;;;;;;5033717;28;20021;-62
2021/08/06 01:05:51;;;;;;;4.85;3.40;;;18.70;95.00;;;;;;5032306;28;20028;-62
2021/08/06 01:08:21;;;;;;;5.00;3.42;;;18.70;95.30;;;;;;5031845;28;20068;-62
2021/08/06 01:10:48;;;;;;;3.95;3.55;;;18.70;95.40;;;;;;5033201;28;20045;-62
2021/08/06 01:13:24;;;;;;;7.07;4.13;;;18.60;95.50;;;;;;5031173;28;20082;-62
2021/08/06 01:15:53;;;;;;;4.80;3.38;;;18.60;95.60;;;;;;5032285;28;20018;-62
2021/08/06 01:18:20;;;;;;;5.22;3.85;;;18.60;95.70;;;;;;5031746;28;20029;-62
2021/08/06 01:20:53;;;;;;;4.57;3.92;;;18.60;95.70;;;;;;5033367;28;20025;-62
2021/08/06 01:23:27;;;;;;;4.38;3.53;;;18.60;95.70;;;;;;5033112;28;20432;-62
2021/08/06 01:25:56;;;;;;;4.60;4.13;;;18.60;95.70;;;;;;5033251;28;20028;-62
2021/08/06 01:28:25;;;;;;;5.45;4.78;;;18.60;95.80;;;;;;5032012;28;20025;-62
2021/08/06 01:30:51;;;;;;;;;;;18.60;95.90;;;;;;5032130;28;20103;-62
2021/08/06 01:33:18;;;;;;;5.35;3.55;;;18.50;95.90;;;;;;5033184;28;19948;-62
2021/08/06 01:35:44;;;;;;;5.88;4.28;;;18.50;96.10;;;;;;5033104;28;20026;-62
2021/08/06 01:38:12;;;;;;;4.35;3.30;;;18.60;96.00;;;;;;5032464;28;20042;-63
2021/08/06 01:41:04;;;;;;;3.85;3.28;;;18.60;95.80;;;;;;5032909;28;20469;-62
2021/08/06 01:43:39;;;;;;;4.00;3.63;;;18.60;95.60;;;;;;5032960;28;20025;-62
2021/08/06 01:46:16;;;;;;;5.55;3.42;;;18.60;95.60;;;;;;5032939;28;20021;-62
2021/08/06 01:48:47;;;;;;;4.78;3.47;;;18.60;95.50;;;;;;5032749;28;20036;-62
2021/08/06 01:51:14;;;;;;;4.10;3.35;;;18.60;95.30;;;;;;5026788;28;20022;-62
2021/08/06 01:53:45;;;;;;;8.52;3.63;;;18.60;95.30;;;;;;5032822;28;20053;-62
2021/08/06 01:56:13;;;;;;;7.10;3.47;;;18.70;95.30;;;;;;5032480;28;20025;-62
2021/08/06 01:58:40;;;;;;;5.10;3.38;;;18.70;95.40;;;;;;5032609;28;20018;-62
2021/08/06 02:01:12;;;;;;;4.45;2.83;;;18.60;95.50;;;;;;5032654;28;20025;-62
2021/08/06 02:03:37;;;;;;;5.68;2.85;;;18.60;95.80;;;;;;5031485;28;20026;-62
2021/08/06 02:06:03;;;;;;;5.05;3.42;;;18.50;96.00;;;;;;5032515;28;20029;-62
2021/08/06 02:08:28;;;;;;;5.72;3.03;;;18.40;96.30;;;;;;5032467;28;20358;-62
2021/08/06 02:10:54;;;;;;;2.97;2.67;;;18.40;96.40;;;;;;5031599;28;20036;-62
2021/08/06 02:13:20;;;;;;;3.03;2.30;;;18.30;96.50;;;;;;5031541;28;20036;-62
2021/08/06 02:15:49;;;;;;;3.40;2.30;;;18.20;96.60;;;;;;5029422;28;20071;-62
2021/08/06 02:18:22;;;;;;;4.50;3.05;;;18.20;96.80;;;;;;5031273;28;20025;-62
2021/08/06 02:20:55;;;;;;;4.07;2.60;;;18.20;97.00;;;;;;5031332;28;20049;-62
2021/08/06 02:23:24;;;;;;;3.00;2.70;;;18.10;97.10;;;;;;5030837;28;20378;-62
2021/08/06 02:25:54;;;;;;;4.50;3.00;;;18.10;97.20;;;;;;5031894;28;20021;-62
2021/08/06 02:28:20;;;;;;;4.40;3.20;;;18.10;97.20;;;;;;5032199;28;20105;-62
2021/08/06 02:30:47;;;;;;;3.83;2.80;;;18.20;97.20;;;;;;5030999;28;20029;-62
2021/08/06 02:33:13;;;;;;;3.92;3.33;;;18.20;97.10;;;;;;5031978;28;20036;-62
2021/08/06 02:35:38;;;;;;;4.68;2.90;;;18.20;97.10;;;;;;5032199;28;20386;-62
2021/08/06 02:38:04;;;;;;;4.32;3.53;;;18.20;97.10;;;;;;5031489;28;20049;-62
2021/08/06 02:40:30;;;;;;;3.88;2.88;;;18.20;96.90;;;;;;5031735;28;20017;-62
2021/08/06 02:42:56;;;;;;;3.72;3.30;;;18.20;96.90;;;;;;5031843;28;20473;-62
2021/08/06 02:45:21;;;;;;;3.47;2.55;;;18.20;96.80;;;;;;5031949;28;20032;-62
2021/08/06 02:47:47;;;;;;;4.60;3.05;;;18.20;96.80;;;;;;5031647;28;20033;-62
2021/08/06 02:50:14;;;;;;;4.03;3.08;;;18.20;96.90;;;;;;5031817;28;20029;-62
2021/08/06 02:52:40;;;;;;;3.65;3.35;;;18.20;96.70;;;;;;5031775;28;20021;-62
2021/08/06 02:55:06;;;;;;;3.72;2.75;;;18.30;96.70;;;;;;5032011;28;20021;-62
2021/08/06 02:57:31;;;;;;;3.85;2.53;;;18.20;96.60;;;;;;5032203;28;20816;-63
2021/08/06 02:59:57;;;;;;;3.72;3.17;;;18.20;96.60;;;;;;5031488;28;20176;-62
2021/08/06 03:02:22;;;;;;;3.80;3.40;;;18.20;96.60;;;;;;5031401;28;20469;-62
2021/08/06 03:04:48;;;;;;;4.65;2.90;;;18.30;96.60;;;;;;5031366;28;20048;-62
2021/08/06 03:07:13;;;;;;;3.65;2.63;;;18.20;96.60;;;;;;5031414;28;20025;-62
2021/08/06 03:09:40;;;;;;;3.85;2.90;;;18.30;96.60;;;;;;5031454;28;20034;-62
2021/08/06 03:12:06;;;;;;;2.95;2.33;;;18.20;96.70;;;;;;5031342;28;20057;-62
2021/08/06 03:14:31;;;;;;;3.60;2.40;;;18.20;96.60;;;;;;5031552;28;20060;-62
2021/08/06 03:16:57;;;;;;;3.40;2.53;;;18.30;96.70;;;;;;5031771;28;20029;-62
2021/08/06 03:19:22;;;;;;;3.17;2.30;;;18.20;96.60;;;;;;5030125;28;20033;-62
2021/08/06 03:21:48;;;;;;;3.78;2.67;;;18.30;96.70;;;;;;5031540;28;20020;-62
2021/08/06 03:24:13;;;;;;;4.05;2.63;;;18.30;96.80;;;;;;5031430;28;20097;-62
2021/08/06 03:26:39;;;;;;;3.58;2.20;;;18.30;96.90;;;;;;5031596;28;20026;-62
2021/08/06 03:29:04;;;;;;;2.75;2.13;;;18.30;96.90;;;;;;5035278;28;20477;-62
2021/08/06 03:31:30;;;;;;;2.65;2.28;;;18.20;97.00;;;;;;5035255;28;20079;-62
2021/08/06 03:33:55;;;;;;;3.22;2.30;;;18.20;97.00;;;;;;5035430;28;20071;-62
2021/08/06 03:36:21;;;;;;;2.80;2.47;;;18.20;97.00;;;;;;5035670;28;20035;-62
2021/08/06 03:38:46;;;;;;;3.80;2.63;;;18.20;97.00;;;;;;5035088;28;20095;-62
2021/08/06 03:41:12;;;;;;;2.95;2.08;;;18.20;97.10;;;;;;5035148;28;20508;-62
2021/08/06 03:43:38;;;;;;;3.13;2.10;;;18.20;97.10;;;;;;5035027;28;20033;-62
2021/08/06 03:46:03;;;;;;;3.00;2.38;;;18.20;97.20;;;;;;5035268;28;20370;-62
2021/08/06 03:48:29;;;;;;;3.55;2.20;;;18.20;97.20;;;;;;5034975;28;20112;-62
2021/08/06 03:51:04;;;;;;;4.18;2.40;;;18.20;97.30;;;;;;5034986;28;20026;-62
2021/08/06 03:53:30;;;;;;;4.60;2.15;;;18.20;97.90;;;;;;5035176;28;20027;-62
2021/08/06 03:55:56;;;;;;;3.22;2.10;;;18.10;98.30;;;;;;5034922;28;20104;-62
2021/08/06 03:58:21;;;;;;;3.58;2.28;;;18.00;98.70;;;;;;5034872;28;20025;-63
2021/08/06 04:00:47;;;;;;;5.05;2.20;;;17.90;99.10;;;;;;5033656;28;21124;-62
2021/08/06 04:03:12;;;;;;;3.53;2.38;;;17.80;99.60;;;;;;5031053;28;20424;-63
2021/08/06 04:05:38;;;;;;;3.13;2.40;;;17.70;99.90;;;;;;5034882;28;20526;-63
2021/08/06 04:08:05;;;;;;;3.72;2.33;;;17.60;99.90;;;;;;5034635;28;20026;-63
2021/08/06 04:10:31;;;;;;;3.47;2.45;;;17.60;99.90;;;;;;5033363;28;20036;-62
2021/08/06 04:12:57;;;;;;;3.55;2.60;;;17.50;99.90;;;;;;5033158;28;20021;-63
2021/08/06 04:15:22;;;;;;;2.65;1.95;;;17.50;99.90;;;;;;5034790;28;20026;-63
2021/08/06 04:17:48;;;;;;;2.88;1.85;;;17.50;99.90;;;;;;5034527;28;20032;-62
2021/08/06 04:20:13;;;;;;;2.85;1.80;;;17.50;99.90;;;;;;5034358;28;20473;-63
2021/08/06 04:22:39;;;;;;;3.08;2.25;;;17.50;99.90;;;;;;5034544;28;20025;-63
2021/08/06 04:25:06;;;;;;;2.42;1.73;;;17.50;99.90;;;;;;5034321;28;20466;-63
2021/08/06 04:27:32;;;;;;;3.63;1.90;;;17.50;99.90;;;;;;5034438;28;20022;-62
2021/08/06 04:29:57;;;;;;;2.60;1.70;;;17.50;99.90;;;;;;5034157;28;20029;-62
2021/08/06 04:32:23;;;;;;;2.88;1.83;;;17.40;99.90;;;;;;5034465;28;20030;-63
2021/08/06 04:34:48;;;;;;;3.83;2.10;;;17.50;99.90;;;;;;5034091;28;20104;-62
2021/08/06 04:37:14;;;;;;;2.00;1.65;;;17.40;99.90;;;;;;5034196;28;20026;-63
2021/08/06 04:39:39;;;;;;;1.75;1.35;;;17.50;99.90;;;;;;5033023;28;20091;-62
2021/08/06 04:42:05;;;;;;;2.60;1.88;;;17.40;99.90;;;;;;5034106;28;20385;-62
2021/08/06 04:44:34;;;;;;;3.13;1.90;;;17.40;99.90;;;;;;5033855;28;20052;-63
2021/08/06 04:47:00;;;;;;;2.83;2.33;;;17.40;99.90;;;;;;5033972;28;20155;-62
2021/08/06 04:49:26;;;;;;;4.28;2.55;;;17.40;99.90;;;;;;5032749;28;20112;-63
2021/08/06 04:51:51;;;;;;;3.05;1.85;;;17.40;99.90;;;;;;5032491;28;20030;-63
2021/08/06 04:54:17;;;;;;;3.15;2.00;;;17.40;99.90;;;;;;5034014;28;20031;-63
2021/08/06 04:56:42;;;;;;;1.80;1.55;;;17.40;99.90;;;;;;5034048;28;20032;-62
2021/08/06 04:59:08;;;;;;;3.75;2.20;;;17.40;99.90;;;;;;5033534;28;20038;-62
2021/08/06 05:01:33;;;;;;;2.45;1.92;;;17.40;99.90;;;;;;5031260;28;20346;-62
2021/08/06 05:03:59;;;;;;;4.30;2.08;;;17.40;99.90;;;;;;5034031;28;20017;-62
2021/08/06 05:06:24;;;;;;;3.72;2.55;;;17.50;99.90;;;;;;5020127;28;20029;-62
2021/08/06 05:08:50;;;;;;;2.85;2.03;;;17.50;99.90;;;;;;5034301;28;20057;-62
2021/08/06 05:11:16;;;;;;;3.88;2.65;;;17.50;99.90;;;;;;5034391;28;20021;-62
2021/08/06 05:13:42;;;;;;;3.88;2.40;;;17.50;99.90;;;;;;5034416;28;20485;-62
2021/08/06 05:16:07;;;;;;;6.55;3.35;;;17.50;99.90;;;;;;5034311;28;20029;-62
2021/08/06 05:18:39;;;;;;;5.75;3.22;;;17.50;99.90;;;;;;5034259;28;20051;-63
2021/08/06 05:21:05;;;;;;;2.83;2.30;;;17.60;99.90;;;;;;5034450;28;20026;-63
2021/08/06 05:23:30;;;;;;;4.07;2.50;;;17.50;99.90;;;;;;5034147;28;20552;-63
2021/08/06 05:25:56;;;;;;;2.85;2.30;;;17.50;99.90;;;;;;5034200;28;20385;-63
2021/08/06 05:28:22;;;;;;;3.15;2.60;;;17.60;99.90;;;;;;5034256;28;20473;-63
2021/08/06 05:30:47;;;;;;;5.13;2.90;;;17.60;99.90;;;;;;5032517;28;20022;-63
2021/08/06 05:33:13;;;;;;;3.20;2.05;;;17.50;99.90;;;;;;5033997;28;20040;-63
2021/08/06 05:35:39;;;;;;;2.70;2.25;;;17.50;99.90;;;;;;5033937;28;20029;-63
2021/08/06 05:38:06;;;;;;;4.35;2.78;;;17.50;99.90;;;;;;5033809;28;20042;-63
2021/08/06 05:40:32;;;;;;;2.38;2.10;;;17.40;99.90;;;;;;5033786;28;20366;-62
2021/08/06 05:42:57;;;;;;;4.18;2.08;;;17.40;99.90;;;;;;5033810;28;20495;-63
2021/08/06 05:45:24;;;;;;;3.22;2.20;;;17.40;99.90;;;;;;5033823;28;20021;-63
2021/08/06 05:47:52;;;;;;;3.15;1.90;;;17.40;99.90;;;;;;5033552;28;20037;-63
2021/08/06 05:50:41;;;;;;;3.25;1.90;;;17.40;99.90;;;;;;5031643;28;20029;-62
2021/08/06 05:53:07;;;;;;;3.58;1.63;;;17.40;99.90;;;;;;5031234;28;20446;-63
2021/08/06 05:55:32;;;;;;;3.20;2.15;;;17.40;99.90;;;;;;5031799;28;20032;-62
2021/08/06 05:57:58;;;;;;;2.45;2.05;;;17.40;99.90;;;;;;5032521;28;20104;-62
2021/08/06 06:00:23;;;;;;;2.05;1.52;;;17.40;99.90;;;;;;5032686;28;20083;-63
2021/08/06 06:02:49;;;;;;;2.22;1.60;;;17.40;99.90;;;;;;5032968;28;20032;-62
2021/08/06 06:05:14;;;;;;;2.47;1.80;;;17.40;99.90;;;;;;5033758;28;20045;-63
2021/08/06 06:07:48;;;;;;;2.42;1.92;;;17.40;99.90;;;;;;5033347;28;20470;-63
2021/08/06 06:10:17;;;;;;;2.67;1.63;;;17.50;99.90;;;;;;5033240;28;20044;-63
2021/08/06 06:12:43;;;;;;;1.92;1.63;;;17.50;99.90;;;;;;5032544;28;20036;-63
2021/08/06 06:15:09;;;;;;;2.35;2.05;;;17.50;99.90;;;;;;5032579;28;20037;-63
2021/08/06 06:18:04;;;;;;;2.20;1.67;;;17.50;99.90;;;;;;5033201;28;20029;-63
2021/08/06 06:20:32;;;;;;;5.78;2.83;;;17.60;99.90;;;;;;5032520;28;20448;-63
2021/08/06 06:22:57;;;;;;;2.38;2.08;;;17.50;99.90;;;;;;5033106;28;20415;-63
2021/08/06 06:25:24;;;;;;;2.20;1.65;;;17.50;99.90;;;;;;5032879;28;20033;-63
2021/08/06 06:27:51;;;;;;;2.47;1.90;;;17.60;99.90;;;;;;5033007;28;20496;-62
2021/08/06 06:30:18;;;;;;;3.35;2.08;;;17.80;99.90;;;;;;5031366;28;20392;-62
2021/08/06 06:32:43;;;;;;;2.65;2.40;;;17.80;99.90;;;;;;5032388;28;20033;-62
2021/08/06 06:35:09;;;;;;;5.03;2.30;;;17.90;99.90;;;;;;5032742;28;20056;-62
2021/08/06 06:37:34;;;;;;;3.97;2.40;;;18.00;99.90;;;;;;5032374;28;20850;-62
2021/08/06 06:40:00;;;;;;;2.50;2.30;;;18.00;99.90;;;;;;5032469;28;20026;-62
2021/08/06 06:42:25;;;;;;;2.53;2.33;;;18.10;99.90;;;;;;5035115;28;20035;-62
2021/08/06 06:44:51;;;;;;;2.42;1.95;;;18.20;99.90;;;;;;5039971;28;20083;-62
2021/08/06 06:47:16;;;;;;;2.58;2.25;;;18.30;99.90;;;;;;5028640;28;20445;-62
2021/08/06 06:49:42;;;;;;;2.47;2.25;;;18.30;99.90;;;;;;5030379;28;20032;-62
2021/08/06 06:52:08;;;;;;;4.00;2.25;;;18.30;99.90;;;;;;5030519;28;20025;-62
2021/08/06 06:54:33;;;;;;;4.13;2.55;;;18.30;99.90;;;;;;5032659;28;20029;-62
2021/08/06 06:56:59;;;;;;;4.40;2.78;;;18.30;99.90;;;;;;5032640;28;20435;-62
2021/08/06 06:59:24;;;;;;;2.92;2.65;;;18.30;99.90;;;;;;5032499;28;20029;-62
2021/08/06 07:01:50;;;;;;;3.42;2.83;;;18.30;99.90;;;;;;5031816;28;20045;-62
2021/08/06 07:04:15;;;;;;;3.10;2.80;;;18.40;99.90;;;;;;5032754;28;20029;-62
2021/08/06 07:06:41;;;;;;;3.70;3.20;;;18.30;99.90;;;;;;5032359;28;20029;-62
2021/08/06 07:09:10;;;;;;;3.80;3.35;;;18.40;99.90;;;;;;5032299;28;20036;-62
2021/08/06 07:11:36;;;;;;;3.72;3.30;;;18.40;99.90;;;;;;5032514;28;20480;-62
2021/08/06 07:14:01;;;;;;;3.67;2.88;;;18.40;99.90;;;;;;5032036;28;20060;-62
2021/08/06 07:16:27;;;;;;;3.40;2.63;;;18.50;99.90;;;;;;5031848;28;20040;-63
2021/08/06 07:18:53;;;;;;;3.35;2.85;;;18.50;99.90;;;;;;5031964;28;20036;-62
2021/08/06 07:21:18;;;;;;;4.20;3.75;;;18.60;99.90;;;;;;5032330;28;20107;-62
2021/08/06 07:23:44;;;;;;;3.83;3.53;;;18.50;99.90;;;;;;5032291;28;20382;-62
2021/08/06 07:26:09;;;;;;;2.95;2.65;;;18.50;99.90;;;;;;5018468;28;20458;-62
2021/08/06 07:28:36;;;;;;;3.20;2.58;;;18.50;99.90;;;;;;5031427;28;20033;-62
2021/08/06 07:31:02;;;;;;;2.63;2.42;;;18.60;99.90;;;;;;5022326;28;20559;-62
2021/08/06 07:33:28;;;;;;;3.60;3.22;;;18.60;99.90;;;;;;5010547;28;20481;-62
2021/08/06 07:35:54;;;;;;;3.85;3.25;;;18.70;99.90;;;;;;5021132;28;20044;-62
2021/08/06 07:38:20;;;;;;;4.53;3.97;;;18.80;99.90;;;;;;5031768;28;20061;-62
2021/08/06 07:40:46;;;;;;;3.83;3.38;;;18.90;99.90;;;;;;5032162;28;20013;-62
2021/08/06 07:43:11;;;;;;;5.25;3.67;;;18.90;99.90;;;;;;5032067;28;20029;-62
2021/08/06 07:45:37;;;;;;;4.90;4.00;;;18.90;99.90;;;;;;5022583;28;20036;-62
2021/08/06 07:48:10;;;;;;;4.25;3.92;;;18.90;99.80;;;;;;5001441;28;20497;-63
2021/08/06 07:50:36;;;;;;;4.10;3.65;;;18.90;99.70;;;;;;5011444;28;20558;-64
2021/08/06 07:53:01;;;;;;;3.50;3.20;;;18.90;99.60;;;;;;5031422;28;20044;-64
2021/08/06 07:55:27;;;;;;;4.93;3.97;;;19.00;99.60;;;;;;5033786;28;20504;-64
2021/08/06 07:57:52;;;;;;;4.50;3.78;;;19.00;99.30;;;;;;5031491;28;20037;-64
2021/08/06 08:00:18;;;;;;;4.18;3.20;;;19.10;99.10;;;;;;5036693;28;20037;-64
2021/08/06 08:02:47;;;;;;;3.47;2.85;;;19.20;98.80;;;;;;5033839;28;20041;-64
2021/08/06 08:05:23;;;;;;;3.80;3.13;;;19.20;98.70;;;;;;5026773;28;20022;-64
2021/08/06 08:07:49;;;;;;;5.43;3.10;;;19.30;98.70;;;;;;5044253;28;20112;-64
2021/08/06 08:10:45;;;;;;;4.53;3.45;;;19.20;98.60;;;;;;5040635;28;20112;-64
2021/08/06 08:13:11;;;;;;;5.07;3.22;;;19.30;98.10;;;;;;5031883;28;20507;-64
2021/08/06 08:15:38;;;;;;;4.97;3.67;;;19.30;98.10;;;;;;5041630;28;20100;-64
2021/08/06 08:18:04;;;;;;;4.00;2.90;;;19.40;97.70;;;;;;5036193;28;20671;-63
2021/08/06 08:20:30;;;;;;;4.72;3.53;;;19.50;97.60;;;;;;5034418;28;20026;-64
2021/08/06 08:22:55;;;;;;;6.60;3.67;;;19.50;97.50;;;;;;5050601;28;20025;-64
2021/08/06 08:25:21;;;;;;;3.55;2.55;;;19.50;97.10;;;;;;5048020;28;20052;-64
2021/08/06 08:27:46;;;;;;;4.82;3.47;;;19.50;97.30;;;;;;5038038;28;20017;-64
2021/08/06 08:30:12;;;;;;;3.75;3.28;;;19.50;96.90;;;;;;5036178;28;20481;-64
2021/08/06 08:32:38;;;;;;;4.57;3.40;;;19.50;96.70;;;;;;5036192;28;20025;-64
2021/08/06 08:35:04;;;;;;;5.97;3.42;;;19.50;96.40;;;;;;5049624;28;20036;-63
2021/08/06 08:37:30;;;;;;;4.00;3.60;;;19.50;96.70;;;;;;5041431;28;20034;-63
2021/08/06 08:39:56;;;;;;;4.00;3.00;;;19.60;96.10;;;;;;5038189;28;20393;-65
2021/08/06 08:42:22;;;;;;;3.53;3.20;;;19.70;95.90;;;;;;5034695;28;20370;-65
2021/08/06 08:44:48;;;;;;;4.63;2.90;;;19.70;96.00;;;;;;5045752;28;20032;-66
2021/08/06 08:47:21;;;;;;;3.28;2.42;;;19.90;95.70;;;;;;5048564;28;20534;-65
2021/08/06 08:49:49;;;;;;;4.00;3.00;;;19.90;95.50;;;;;;5039319;28;20025;-64
2021/08/06 08:52:23;;;;;;;4.57;2.80;;;19.90;95.10;;;;;;5037706;28;20038;-65
2021/08/06 08:54:49;;;;;;;3.88;2.55;;;19.90;94.90;;;;;;5037108;28;20116;-65
2021/08/06 08:57:50;;;;;;;3.95;2.53;;;19.90;94.80;;;;;;5050022;28;20100;-65
2021/08/06 09:00:16;;;;;;;4.32;2.92;;;20.00;95.20;;;;;;5036213;28;20038;-64
2021/08/06 09:02:42;;;;;;;4.13;2.78;;;20.00;94.70;;;;;;5039045;28;20347;-65
2021/08/06 09:05:48;;;;;;;4.88;2.60;;;20.00;94.40;;;;;;5039506;28;20029;-64
2021/08/06 09:08:18;;;;;;;5.05;3.03;;;20.10;94.10;;;;;;5034696;28;20029;-65
2021/08/06 09:10:44;;;;;;;4.82;3.10;;;20.20;94.10;;;;;;5037039;28;20021;-65
2021/08/06 09:13:55;;;;;;;4.22;2.85;;;20.40;94.40;;;;;;5039666;28;20485;-64
2021/08/06 09:16:46;;;;;;;;;;;;;;;;;;;;;
2021/08/06 09:20:08;;;;;;;3.65;2.40;;;20.40;93.60;;;;;;5034060;28;20041;-64
2021/08/06 09:22:34;;;;;;;4.68;2.10;;;20.50;93.20;;;;;;5012163;28;20505;-64
2021/08/06 09:25:50;;;;;;;5.22;2.10;;;20.50;93.00;;;;;;5040658;28;20013;-64
2021/08/06 09:28:15;;;;;;;3.50;2.20;;;20.70;92.80;;;;;;5034103;28;20029;-64
2021/08/06 09:30:41;;;;;;;3.72;1.75;;;20.70;92.60;;;;;;5047229;28;20084;-64
2021/08/06 09:33:08;;;;;;;5.07;2.10;;;20.80;92.20;;;;;;5046474;28;20133;-64
2021/08/06 09:35:35;;;;;;;5.25;1.88;;;20.90;92.60;;;;;;5039539;28;20151;-64
2021/08/06 09:38:02;;;;;;;4.47;2.00;;;21.10;91.60;;;;;;5035519;28;20046;-64
2021/08/06 09:40:35;;;;;;;4.45;2.40;;;21.10;91.20;;;;;;5047205;28;20030;-65
2021/08/06 09:43:05;;;;;;;4.85;2.05;;;21.10;91.40;;;;;;5047804;28;20017;-64
2021/08/06 09:45:37;;;;;;;4.60;2.20;;;21.10;91.10;;;;;;5042412;28;20090;-64
2021/08/06 09:48:03;;;;;;;3.28;1.70;;;21.10;90.80;;;;;;5035939;28;20026;-65
2021/08/06 09:50:34;;;;;;;3.45;1.38;;;21.00;90.90;;;;;;5034749;28;20029;-65
2021/08/06 09:53:00;;;;;;;2.33;1.45;;;21.00;90.80;;;;;;5042877;28;20031;-65
2021/08/06 09:55:34;;;;;;;3.65;1.20;;;21.00;90.80;;;;;;5046758;28;20100;-64
2021/08/06 09:58:03;;;;;;;3.53;1.88;;;21.00;90.50;;;;;;5038477;28;20397;-64
2021/08/06 10:00:31;;;;;;;2.05;1.17;;;21.00;90.20;;;;;;5036405;28;20064;-64
2021/08/06 10:02:58;;;;;;;2.27;0.97;;;21.00;90.00;;;;;;5020491;28;20049;-65
2021/08/06 10:05:28;;;;;;;2.80;1.38;;;21.10;90.00;;;;;;5039377;28;20025;-65
2021/08/06 10:07:56;;;;;;;4.05;1.75;;;21.10;90.00;;;;;;5029207;28;20393;-64
2021/08/06 10:10:27;;;;;;;3.13;1.20;;;21.00;90.00;;;;;;5034684;28;20117;-64
2021/08/06 10:12:53;;;;;;;5.32;1.40;;;20.80;89.60;;;;;;5035532;28;20028;-64
2021/08/06 10:15:21;;;;;;;3.38;1.20;;;20.70;90.00;;;;;;5048226;28;20104;-64
2021/08/06 10:17:48;;;;;;;5.00;1.30;;;20.80;90.10;;;;;;5041601;28;20013;-64
2021/08/06 10:20:17;;;;;;;2.40;1.10;;;20.90;90.00;;;;;;5037248;28;20060;-64
2021/08/06 10:22:42;;;;;;;4.27;1.70;;;21.00;89.80;;;;;;5036313;28;20029;-64
2021/08/06 10:25:11;;;;;;;4.07;2.00;;;21.00;90.20;;;;;;5049400;28;20277;-64
2021/08/06 10:27:40;;;;;;;2.45;1.63;;;21.00;89.60;;;;;;5042659;28;20067;-64
2021/08/06 10:30:11;;;;;;;2.83;1.33;;;21.00;90.20;;;;;;5045209;28;20028;-63
2021/08/06 10:32:39;;;;;;;2.38;1.05;;;21.10;90.60;;;;;;5044202;28;20104;-63
2021/08/06 10:35:22;;;;;;;3.45;1.50;;;21.30;90.40;;;;;;5040604;28;20029;-63
2021/08/06 10:37:55;;;;;;;3.97;1.70;;;21.40;89.90;;;;;;5025874;28;20056;-63
2021/08/06 10:40:46;;;;;;;3.05;1.55;;;21.30;89.00;;;;;;5033279;28;20025;-63
2021/08/06 10:43:13;;;;;;;2.90;1.20;;;21.20;89.60;;;;;;5026353;28;20134;-64
2021/08/06 10:45:53;;;;;;;3.30;1.40;;;21.00;90.70;;;;;;5034590;28;20052;-64
2021/08/06 10:48:31;;;;;;;3.55;1.20;;;20.80;91.30;;;;;;5032990;28;20067;-64
2021/08/06 10:51:18;;;;;;;2.78;1.13;;;20.60;91.40;;;;;;5035400;28;20056;-63
2021/08/06 10:53:43;;;;;;;3.33;1.10;;;20.70;91.70;;;;;;5041031;28;20029;-63
2021/08/06 10:56:18;;;;;;;3.53;1.00;;;20.80;91.80;;;;;;5038585;28;20083;-64
2021/08/06 10:58:52;;;;;;;4.35;0.98;;;21.10;91.20;;;;;;5038390;28;20433;-63
2021/08/06 11:01:24;;;;;;;2.03;1.05;;;21.40;90.70;;;;;;5046162;28;20491;-63
2021/08/06 11:03:54;;;;;;;1.80;1.25;;;21.50;89.40;;;;;;5031629;28;20022;-63
2021/08/06 11:06:35;;;;;;;1.77;1.08;;;21.60;88.90;;;;;;5042952;28;20017;-63
2021/08/06 11:09:06;;;;;;;1.88;0.90;;;21.70;87.20;;;;;;5031107;28;20163;-65
2021/08/06 11:11:57;;;;;;;1.83;1.00;;;21.80;86.50;;;;;;5032165;28;20104;-63
2021/08/06 11:14:35;;;;;;;2.58;0.98;;;22.00;87.20;;;;;;5042513;28;20500;-63
2021/08/06 11:17:15;;;;;;;2.13;1.00;;;22.20;86.10;;;;;;5035620;28;20029;-63
2021/08/06 11:19:47;;;;;;;2.33;0.80;;;22.30;85.10;;;;;;5041995;28;20053;-63
2021/08/06 11:22:50;;;;;;;2.63;0.90;;;22.30;84.90;;;;;;5043922;28;20041;-63
2021/08/06 11:25:23;;;;;;;2.78;1.30;;;22.60;83.20;;;;;;5028418;28;20087;-63
2021/08/06 11:27:54;;;;;;;2.20;1.20;;;22.90;82.30;;;;;;5045765;28;20025;-64
2021/08/06 11:30:24;;;;;;;2.80;1.00;;;22.90;82.30;;;;;;5030121;28;20370;-64
2021/08/06 11:32:53;;;;;;;1.73;0.80;;;23.10;81.70;;;;;;5035090;28;20048;-63
2021/08/06 11:35:32;;;;;;;2.42;1.15;;;23.10;81.10;;;;;;5042597;28;20056;-64
2021/08/06 11:38:09;;;;;;;2.20;1.00;;;23.10;79.80;;;;;;5034697;28;20132;-63
2021/08/06 11:40:36;;;;;;;4.25;1.17;;;23.00;79.80;;;;;;5033239;28;20035;-63
2021/08/06 11:43:28;;;;;;;1.25;0.75;;;23.20;80.60;;;;;;5047270;28;20366;-63
2021/08/06 11:46:13;;;;;;;1.80;0.90;;;23.40;79.50;;;;;;5034100;28;20042;-63
2021/08/06 11:49:05;;;;;;;2.05;0.88;;;23.50;78.30;;;;;;5035937;28;20108;-63
2021/08/06 11:51:30;;;;;;;1.77;0.70;;;23.30;78.40;;;;;;5050128;28;20083;-64
2021/08/06 11:53:56;;;;;;;2.95;1.20;;;23.10;78.20;;;;;;5037450;28;20029;-63
2021/08/06 11:56:22;;;;;;;1.85;0.90;;;23.00;78.40;;;;;;5036334;28;20018;-63
2021/08/06 11:58:48;;;;;;;2.47;0.90;;;22.80;78.60;;;;;;5036561;28;20103;-63
2021/08/06 12:01:24;;;;;;;1.65;0.70;;;22.60;78.90;;;;;;5032746;28;20477;-64
2021/08/06 12:03:53;;;;;;;2.17;0.98;;;22.50;79.20;;;;;;5044258;28;20075;-63
2021/08/06 12:06:20;;;;;;;2.15;0.88;;;22.20;84.10;;;;;;5042404;28;20024;-65
2021/08/06 12:08:58;;;;;;;2.08;1.00;;;21.80;88.10;;;;;;5041877;28;20588;-65
2021/08/06 12:11:31;;;;;;;2.00;1.00;;;21.20;90.50;;;;;;5007087;28;20128;-65
2021/08/06 12:14:01;;;;;;;2.55;1.10;;;21.00;92.20;;;;;;5046977;28;20064;-64
2021/08/06 12:16:31;;;;;;;1.27;0.68;;;20.90;93.30;;;;;;5044260;28;20025;-66
2021/08/06 12:19:01;;;;;;;2.72;0.60;;;20.90;93.60;;;;;;5045403;28;20480;-63
2021/08/06 12:21:32;;;;;;;0.88;0.60;;;20.80;93.20;;;;;;5025543;28;20116;-64
2021/08/06 12:24:18;;;;;;;0.75;0.60;;;20.80;93.50;;;;;;5046028;28;20383;-63
2021/08/06 12:26:55;;;;;;;2.97;0.90;;;21.00;93.30;;;;;;5046908;28;20476;-64
2021/08/06 12:29:27;;;;;;;1.85;0.93;;;21.00;91.50;;;;;;5044380;28;20048;-64
2021/08/06 12:32:03;;;;;;;2.55;1.00;;;21.20;91.90;;;;;;5037215;28;20477;-64
2021/08/06 12:34:37;;;;;;;1.73;1.10;;;21.30;91.30;;;;;;5036559;28;20044;-64
2021/08/06 12:37:09;;;;;;;1.80;1.33;;;21.50;91.60;;;;;;5033801;28;20101;-64
2021/08/06 12:39:50;;;;;;;2.22;1.00;;;21.80;91.60;;;;;;5033728;28;20044;-63
2021/08/06 12:42:21;;;;;;;1.77;1.08;;;22.10;90.80;;;;;;5032529;28;20022;-64
2021/08/06 12:45:16;;;;;;;1.88;1.08;;;22.30;90.20;;;;;;5037612;28;20550;-63
2021/08/06 12:47:53;;;;;;;1.63;1.23;;;22.60;88.80;;;;;;5046075;28;20037;-64
2021/08/06 12:50:21;;;;;;;1.77;1.00;;;22.70;88.00;;;;;;5035009;28;20026;-64
2021/08/06 12:53:01;;;;;;;1.07;0.67;;;23.00;87.20;;;;;;5033433;28;20195;-64
2021/08/06 12:55:28;;;;;;;3.22;0.70;;;23.20;84.60;;;;;;5030970;28;20030;-63
2021/08/06 12:58:11;;;;;;;1.33;0.70;;;23.30;83.00;;;;;;5032498;28;20032;-63
2021/08/06 13:00:49;;;;;;;2.35;0.80;;;23.40;82.30;;;;;;5031530;28;20674;-63